Time;durP1;ratioP1;P1;durP2;ratioP2;P2;SDS_P1;SDS_P2;PMS_P1;PMS_P2;Temp;Humidity;BMP_temperature;BMP_pressure;BME280_temperature;BME280_humidity;BME280_pressure;Samples;Min_cycle;Max_cycle;Signal;HPM_P1;HPM_P2
2022/03/14 00:00:16;;;;;;;19.90;10.60;;;11.80;64.60;;;;;;5119558;27;20387;-76
2022/03/14 00:02:42;;;;;;;16.65;10.20;;;11.80;64.50;;;;;;5119865;27;20047;-77
2022/03/14 00:05:14;;;;;;;19.80;11.57;;;11.70;64.30;;;;;;5119623;27;20058;-77
2022/03/14 00:07:44;;;;;;;18.63;11.07;;;11.70;64.50;;;;;;5119853;27;20127;-76
2022/03/14 00:10:13;;;;;;;18.52;10.90;;;11.60;65.00;;;;;;5119456;27;20047;-76
2022/03/14 00:12:40;;;;;;;17.50;10.48;;;11.40;65.10;;;;;;5118976;27;20452;-76
2022/03/14 00:15:10;;;;;;;21.08;10.85;;;11.30;66.00;;;;;;5102425;27;20074;-76
2022/03/14 00:17:37;;;;;;;18.02;11.15;;;11.20;65.60;;;;;;5118910;27;20474;-76
2022/03/14 00:20:07;;;;;;;15.75;9.82;;;11.20;65.90;;;;;;5119124;27;20047;-76
2022/03/14 00:22:32;;;;;;;20.60;10.27;;;11.30;64.90;;;;;;5102406;27;20039;-76
2022/03/14 00:24:58;;;;;;;19.92;11.20;;;11.30;64.80;;;;;;5119559;27;20129;-76
2022/03/14 00:27:24;;;;;;;22.55;10.82;;;11.30;65.00;;;;;;5102109;27;20377;-76
2022/03/14 00:29:49;;;;;;;17.73;10.60;;;11.20;65.00;;;;;;5119169;27;20043;-76
2022/03/14 00:32:15;;;;;;;18.30;10.60;;;11.20;65.50;;;;;;5118888;27;20047;-76
2022/03/14 00:34:41;;;;;;;19.75;10.52;;;11.20;65.70;;;;;;5119284;27;20131;-76
2022/03/14 00:37:06;;;;;;;16.63;9.80;;;11.10;66.20;;;;;;5118751;27;20382;-77
2022/03/14 00:39:32;;;;;;;18.88;9.98;;;11.20;66.70;;;;;;5101928;27;20039;-76
2022/03/14 00:41:58;;;;;;;19.27;10.70;;;11.20;66.90;;;;;;5118692;27;20051;-76
2022/03/14 00:44:24;;;;;;;18.63;10.38;;;11.20;66.90;;;;;;5137114;27;20039;-76
2022/03/14 00:46:50;;;;;;;16.23;9.98;;;11.30;67.20;;;;;;5101488;27;20539;-76
2022/03/14 00:49:15;;;;;;;19.98;10.82;;;11.50;67.30;;;;;;5118425;27;20051;-76
2022/03/14 00:51:41;;;;;;;18.50;10.18;;;11.60;67.50;;;;;;5136175;27;20047;-76
2022/03/14 00:54:07;;;;;;;16.20;9.95;;;11.60;67.80;;;;;;5118694;27;20047;-76
2022/03/14 00:56:33;;;;;;;20.33;10.07;;;11.70;67.90;;;;;;5114455;28;20052;-76
2022/03/14 00:58:59;;;;;;;20.15;10.82;;;11.80;68.10;;;;;;5115158;28;20052;-76
2022/03/14 01:01:26;;;;;;;16.70;9.82;;;11.80;68.10;;;;;;5097863;28;20398;-77
2022/03/14 01:03:53;;;;;;;18.58;10.48;;;11.80;68.20;;;;;;5098207;28;20044;-77
2022/03/14 01:06:19;;;;;;;17.58;10.13;;;11.90;68.60;;;;;;5098037;28;20051;-76
2022/03/14 01:08:44;;;;;;;17.45;10.27;;;12.00;69.10;;;;;;5114932;28;20126;-76
2022/03/14 01:11:10;;;;;;;18.45;9.48;;;12.00;68.70;;;;;;5115328;28;20182;-76
2022/03/14 01:13:36;;;;;;;16.50;9.63;;;12.10;69.40;;;;;;5114746;28;20059;-76
2022/03/14 01:16:03;;;;;;;18.33;9.75;;;12.10;69.50;;;;;;5114352;28;20043;-77
2022/03/14 01:18:29;;;;;;;14.82;8.32;;;12.10;69.80;;;;;;5114807;28;20392;-76
2022/03/14 01:20:55;;;;;;;13.80;8.82;;;12.10;70.50;;;;;;5115021;28;20070;-76
2022/03/14 01:23:21;;;;;;;14.75;8.55;;;12.20;71.10;;;;;;5098020;28;20050;-76
2022/03/14 01:25:47;;;;;;;13.10;8.23;;;12.20;71.10;;;;;;5114678;28;20420;-77
2022/03/14 01:28:13;;;;;;;16.70;8.95;;;12.20;71.50;;;;;;5114621;28;20048;-76
2022/03/14 01:30:43;;;;;;;14.20;8.05;;;12.30;71.20;;;;;;5114432;28;20047;-77
2022/03/14 01:33:09;;;;;;;16.60;8.57;;;12.30;71.80;;;;;;5114592;28;20055;-76
2022/03/14 01:35:36;;;;;;;12.18;7.97;;;12.40;71.80;;;;;;5114406;28;20047;-77
2022/03/14 01:38:02;;;;;;;14.18;8.00;;;12.40;71.90;;;;;;5114249;28;20047;-76
2022/03/14 01:40:28;;;;;;;15.68;8.05;;;12.50;72.20;;;;;;5114383;28;20051;-76
2022/03/14 01:42:54;;;;;;;13.27;8.20;;;12.50;72.10;;;;;;5114319;28;20051;-76
2022/03/14 01:45:20;;;;;;;13.07;8.88;;;12.60;72.20;;;;;;5114159;28;20461;-77
2022/03/14 01:47:47;;;;;;;14.35;8.60;;;12.60;72.40;;;;;;5113826;28;20082;-76
2022/03/14 01:50:13;;;;;;;12.98;8.75;;;12.60;72.60;;;;;;5113897;28;20549;-77
2022/03/14 01:52:40;;;;;;;14.25;8.40;;;12.60;72.10;;;;;;5113790;28;20039;-77
2022/03/14 01:55:07;;;;;;;15.57;8.48;;;12.50;72.40;;;;;;5116689;27;20495;-76
2022/03/14 01:57:34;;;;;;;13.82;8.25;;;12.50;72.90;;;;;;5100266;27;20051;-76
2022/03/14 02:00:00;;;;;;;13.30;8.73;;;12.40;73.00;;;;;;5135504;27;20553;-77
2022/03/14 02:02:26;;;;;;;14.18;8.15;;;12.30;72.90;;;;;;5117225;27;20086;-76
2022/03/14 02:04:53;;;;;;;11.10;7.13;;;12.20;73.00;;;;;;5134824;27;20074;-76
2022/03/14 02:07:20;;;;;;;13.40;8.35;;;12.20;73.70;;;;;;5083548;27;20112;-76
2022/03/14 02:09:46;;;;;;;13.45;8.40;;;12.20;73.70;;;;;;5117195;27;20093;-77
2022/03/14 02:12:12;;;;;;;12.77;8.00;;;12.20;73.70;;;;;;5117005;27;20086;-76
2022/03/14 02:14:41;;;;;;;13.02;8.00;;;12.20;73.70;;;;;;5117119;27;20047;-76
2022/03/14 02:17:14;;;;;;;13.43;7.55;;;12.20;73.70;;;;;;5134788;27;20108;-76
2022/03/14 02:19:41;;;;;;;13.88;8.45;;;12.10;74.10;;;;;;5117587;27;20463;-76
2022/03/14 02:22:12;;;;;;;12.48;8.05;;;11.90;74.20;;;;;;5117036;27;20047;-76
2022/03/14 02:24:39;;;;;;;12.18;7.80;;;12.00;74.80;;;;;;5116734;27;20061;-77
2022/03/14 02:27:06;;;;;;;13.32;8.10;;;12.00;74.90;;;;;;5099832;27;20088;-76
2022/03/14 02:29:31;;;;;;;14.80;8.65;;;12.00;74.90;;;;;;5116907;27;20065;-77
2022/03/14 02:31:57;;;;;;;13.75;7.72;;;12.10;74.90;;;;;;5116612;27;20043;-77
2022/03/14 02:34:23;;;;;;;12.18;8.07;;;12.10;75.00;;;;;;5117422;27;20387;-77
2022/03/14 02:36:48;;;;;;;13.32;7.60;;;12.20;75.30;;;;;;5117057;27;20051;-77
2022/03/14 02:39:14;;;;;;;14.20;7.95;;;12.20;75.40;;;;;;5116781;27;20043;-77
2022/03/14 02:41:41;;;;;;;12.52;8.02;;;12.20;75.50;;;;;;5116694;27;20450;-77
2022/03/14 02:44:08;;;;;;;13.52;7.70;;;12.20;75.60;;;;;;5116913;27;20047;-77
2022/03/14 02:46:37;;;;;;;13.07;7.82;;;12.10;75.60;;;;;;5116227;28;20047;-77
2022/03/14 02:49:04;;;;;;;15.73;8.18;;;12.10;75.90;;;;;;5099474;27;20046;-77
2022/03/14 02:51:30;;;;;;;11.80;7.57;;;12.10;76.20;;;;;;5099336;27;20468;-77
2022/03/14 02:53:57;;;;;;;12.68;7.88;;;12.10;76.20;;;;;;5099449;28;20100;-77
2022/03/14 02:56:24;;;;;;;14.48;8.45;;;12.10;76.20;;;;;;5116193;28;20055;-76
2022/03/14 02:58:53;;;;;;;13.30;7.80;;;12.10;75.90;;;;;;5116574;28;20090;-77
2022/03/14 03:01:20;;;;;;;13.00;7.68;;;12.00;75.90;;;;;;5116379;28;20062;-77
2022/03/14 03:03:46;;;;;;;13.50;8.18;;;11.90;75.80;;;;;;5116595;28;20103;-77
2022/03/14 03:06:13;;;;;;;13.15;7.55;;;11.90;76.10;;;;;;5099649;28;20047;-76
2022/03/14 03:08:43;;;;;;;12.93;8.80;;;11.90;76.50;;;;;;5116235;28;20083;-77
2022/03/14 03:11:10;;;;;;;13.60;8.18;;;12.00;76.70;;;;;;5116412;28;20489;-77
2022/03/14 03:13:35;;;;;;;13.93;7.93;;;12.10;76.70;;;;;;5115894;28;20047;-77
2022/03/14 03:16:01;;;;;;;12.50;7.45;;;12.10;76.90;;;;;;5119463;27;20382;-77
2022/03/14 03:18:27;;;;;;;11.38;7.40;;;12.10;76.70;;;;;;5120676;27;20053;-77
2022/03/14 03:20:52;;;;;;;11.77;7.35;;;12.10;77.10;;;;;;5120307;27;20469;-77
2022/03/14 03:23:19;;;;;;;12.98;7.38;;;12.10;77.00;;;;;;5103678;27;20514;-77
2022/03/14 03:25:44;;;;;;;12.32;7.57;;;12.00;77.00;;;;;;5120140;27;20058;-77
2022/03/14 03:28:10;;;;;;;12.60;7.50;;;11.90;77.10;;;;;;5120385;27;20043;-76
2022/03/14 03:30:36;;;;;;;13.93;7.82;;;11.90;77.30;;;;;;5120264;27;20047;-77
2022/03/14 03:33:02;;;;;;;11.80;7.15;;;11.90;77.40;;;;;;5119731;27;20096;-77
2022/03/14 03:35:28;;;;;;;13.88;7.10;;;11.90;77.70;;;;;;5120137;27;20119;-77
2022/03/14 03:37:53;;;;;;;11.95;7.00;;;11.90;77.50;;;;;;5120138;27;20046;-77
2022/03/14 03:40:19;;;;;;;10.52;6.72;;;11.90;77.70;;;;;;5120054;27;20133;-77
2022/03/14 03:42:45;;;;;;;12.10;7.07;;;12.00;77.60;;;;;;5120092;27;20099;-78
2022/03/14 03:45:13;;;;;;;11.63;7.35;;;12.00;77.60;;;;;;5120196;27;20060;-77
2022/03/14 03:47:40;;;;;;;10.52;6.88;;;12.00;77.90;;;;;;5119583;27;20051;-77
2022/03/14 03:50:06;;;;;;;10.77;6.32;;;11.90;77.80;;;;;;5119926;27;20071;-77
2022/03/14 03:52:32;;;;;;;11.13;6.88;;;11.90;78.00;;;;;;5119720;27;20499;-77
2022/03/14 03:54:58;;;;;;;11.40;6.72;;;11.90;77.70;;;;;;5102667;27;20119;-77
2022/03/14 03:57:23;;;;;;;12.60;6.57;;;11.80;78.00;;;;;;5120140;27;20043;-77
2022/03/14 03:59:49;;;;;;;10.07;6.68;;;11.90;78.30;;;;;;5119694;27;20051;-77
2022/03/14 04:02:19;;;;;;;8.30;5.88;;;11.90;78.10;;;;;;5119630;27;20043;-77
2022/03/14 04:04:49;;;;;;;9.85;6.28;;;11.90;78.60;;;;;;5103124;27;20462;-77
2022/03/14 04:07:18;;;;;;;11.05;6.55;;;11.90;78.70;;;;;;5119437;27;20043;-77
2022/03/14 04:09:49;;;;;;;11.23;6.38;;;11.90;78.90;;;;;;5119580;27;20047;-77
2022/03/14 04:12:15;;;;;;;9.77;6.57;;;11.90;78.80;;;;;;5119406;27;20047;-77
2022/03/14 04:14:41;;;;;;;8.35;6.05;;;11.90;78.90;;;;;;5102539;27;20054;-77
2022/03/14 04:17:07;;;;;;;8.57;5.55;;;11.90;79.30;;;;;;5118707;27;20134;-77
2022/03/14 04:19:34;;;;;;;9.63;5.35;;;11.80;79.30;;;;;;5119391;27;20085;-77
2022/03/14 04:21:59;;;;;;;7.65;5.00;;;11.80;79.90;;;;;;5119283;27;20063;-77
2022/03/14 04:24:25;;;;;;;9.30;5.00;;;11.80;79.60;;;;;;5119292;27;20048;-76
2022/03/14 04:26:52;;;;;;;6.72;4.40;;;11.80;79.60;;;;;;5101477;27;20134;-77
2022/03/14 04:29:18;;;;;;;7.07;4.90;;;11.80;79.80;;;;;;5119787;27;20090;-77
2022/03/14 04:31:44;;;;;;;7.85;5.00;;;11.80;79.80;;;;;;5119154;27;20057;-76
2022/03/14 04:34:10;;;;;;;8.05;5.30;;;11.90;79.80;;;;;;5119019;27;20126;-76
2022/03/14 04:36:36;;;;;;;7.55;4.63;;;11.90;80.10;;;;;;5118915;27;20439;-77
2022/03/14 04:39:02;;;;;;;6.63;4.53;;;11.90;79.80;;;;;;5118977;27;20044;-76
2022/03/14 04:41:28;;;;;;;7.53;4.80;;;11.90;79.80;;;;;;5101893;27;20043;-77
2022/03/14 04:43:53;;;;;;;8.50;4.30;;;11.90;79.80;;;;;;5118917;27;20176;-77
2022/03/14 04:46:19;;;;;;;7.15;4.60;;;11.90;80.00;;;;;;5118378;27;20058;-77
2022/03/14 04:48:45;;;;;;;7.88;4.10;;;11.80;80.40;;;;;;5118862;27;20067;-76
2022/03/14 04:51:10;;;;;;;7.15;3.88;;;11.70;80.60;;;;;;5118574;27;20042;-76
2022/03/14 04:53:36;;;;;;;6.03;3.58;;;11.70;80.70;;;;;;5118501;27;20096;-76
2022/03/14 04:56:02;;;;;;;5.93;3.97;;;11.80;80.90;;;;;;5118291;27;20047;-76
2022/03/14 04:58:28;;;;;;;5.78;3.67;;;11.90;80.70;;;;;;5118718;27;20047;-76
2022/03/14 05:00:54;;;;;;;6.35;4.13;;;11.90;80.70;;;;;;5118611;27;20383;-77
2022/03/14 05:03:20;;;;;;;6.22;3.40;;;11.90;80.70;;;;;;5118327;27;20063;-76
2022/03/14 05:05:46;;;;;;;6.75;3.60;;;11.70;81.20;;;;;;5102033;27;20096;-76
2022/03/14 05:08:12;;;;;;;5.75;3.63;;;11.80;81.30;;;;;;5118484;27;20470;-76
2022/03/14 05:10:38;;;;;;;6.57;3.78;;;11.80;81.20;;;;;;5118285;27;20443;-76
2022/03/14 05:13:03;;;;;;;4.68;3.40;;;11.90;81.30;;;;;;5117201;27;20061;-76
2022/03/14 05:15:30;;;;;;;5.97;3.60;;;11.90;81.20;;;;;;5118296;27;20099;-77
2022/03/14 05:17:57;;;;;;;4.88;3.08;;;11.90;81.50;;;;;;5117664;27;20045;-77
2022/03/14 05:20:23;;;;;;;5.88;3.13;;;11.90;81.50;;;;;;5117626;27;20047;-76
2022/03/14 05:22:50;;;;;;;4.30;2.70;;;11.80;81.90;;;;;;5136281;27;20472;-76
2022/03/14 05:25:20;;;;;;;5.50;2.90;;;11.70;82.50;;;;;;5117825;27;20408;-76
2022/03/14 05:27:46;;;;;;;4.70;2.85;;;11.70;82.90;;;;;;5118030;27;20063;-77
2022/03/14 05:30:12;;;;;;;5.10;3.15;;;11.60;83.30;;;;;;5117909;27;20149;-76
2022/03/14 05:32:42;;;;;;;5.13;2.95;;;11.60;83.50;;;;;;5117798;27;20169;-77
2022/03/14 05:35:11;;;;;;;4.57;3.00;;;11.40;83.80;;;;;;5117788;27;20134;-77
2022/03/14 05:37:39;;;;;;;5.00;2.90;;;11.50;84.00;;;;;;5117390;28;20050;-76
2022/03/14 05:40:06;;;;;;;5.30;2.80;;;11.50;84.40;;;;;;5117393;27;20078;-77
2022/03/14 05:42:31;;;;;;;3.78;2.85;;;11.40;84.80;;;;;;5100655;27;20076;-77
2022/03/14 05:44:57;;;;;;;4.90;2.85;;;11.60;84.60;;;;;;5117699;27;20435;-77
2022/03/14 05:47:23;;;;;;;4.15;2.90;;;11.60;84.70;;;;;;5100251;27;20043;-77
2022/03/14 05:49:48;;;;;;;4.43;2.65;;;11.60;84.80;;;;;;5117604;27;20054;-76
2022/03/14 05:52:14;;;;;;;3.95;2.40;;;11.50;85.20;;;;;;5117729;27;20162;-76
2022/03/14 05:54:40;;;;;;;4.35;2.88;;;11.50;85.40;;;;;;5117454;27;20086;-76
2022/03/14 05:57:06;;;;;;;4.82;3.00;;;11.50;85.80;;;;;;5116849;27;20051;-76
2022/03/14 05:59:31;;;;;;;4.13;2.83;;;11.50;86.30;;;;;;5117124;27;20387;-76
2022/03/14 06:01:57;;;;;;;4.55;2.75;;;11.40;86.70;;;;;;5117357;27;20478;-76
2022/03/14 06:04:23;;;;;;;5.85;3.05;;;11.40;87.40;;;;;;5117411;27;20371;-76
2022/03/14 06:06:49;;;;;;;4.95;2.45;;;11.40;87.90;;;;;;5100841;27;20449;-76
2022/03/14 06:09:14;;;;;;;4.70;2.75;;;11.40;87.80;;;;;;5100133;27;20055;-76
2022/03/14 06:11:41;;;;;;;5.63;2.67;;;11.30;88.40;;;;;;5117050;27;20047;-77
2022/03/14 06:14:07;;;;;;;6.07;3.25;;;11.20;88.90;;;;;;5117125;27;20051;-76
2022/03/14 06:16:34;;;;;;;4.03;2.78;;;11.10;89.50;;;;;;5116630;27;20098;-76
2022/03/14 06:18:59;;;;;;;4.32;2.63;;;11.00;90.10;;;;;;5116727;27;20051;-76
2022/03/14 06:21:25;;;;;;;7.38;2.92;;;11.10;90.30;;;;;;5117077;27;20051;-76
2022/03/14 06:23:51;;;;;;;4.85;3.35;;;11.00;90.40;;;;;;5117189;27;20099;-76
2022/03/14 06:26:17;;;;;;;9.00;3.30;;;11.20;90.40;;;;;;5099980;27;20050;-76
2022/03/14 06:28:43;;;;;;;5.93;3.70;;;11.20;90.60;;;;;;5116693;27;20470;-76
2022/03/14 06:31:10;;;;;;;4.97;3.40;;;11.10;90.80;;;;;;5082939;27;20057;-75
2022/03/14 06:33:39;;;;;;;5.05;3.38;;;11.10;91.10;;;;;;5116180;27;20043;-76
2022/03/14 06:36:05;;;;;;;4.47;3.08;;;11.20;91.20;;;;;;5116534;27;20054;-76
2022/03/14 06:38:32;;;;;;;4.93;3.17;;;11.10;91.30;;;;;;5100350;27;20047;-76
2022/03/14 06:40:59;;;;;;;4.78;3.22;;;11.20;91.50;;;;;;5117043;27;20047;-76
2022/03/14 06:43:25;;;;;;;6.97;3.05;;;11.30;91.50;;;;;;5116810;27;20126;-75
2022/03/14 06:45:51;;;;;;;6.53;3.95;;;11.10;91.60;;;;;;5116579;27;20457;-74
2022/03/14 06:48:18;;;;;;;5.95;3.72;;;11.00;92.00;;;;;;5116277;27;20094;-75
2022/03/14 06:50:44;;;;;;;5.75;3.60;;;11.10;92.10;;;;;;5116005;28;20057;-75
2022/03/14 06:53:10;;;;;;;5.15;3.80;;;11.20;92.10;;;;;;5099355;28;20047;-74
2022/03/14 06:55:35;;;;;;;5.97;3.28;;;11.10;92.40;;;;;;5099481;28;20065;-75
2022/03/14 06:58:01;;;;;;;5.40;3.47;;;11.10;92.50;;;;;;5134671;28;20051;-74
2022/03/14 07:00:27;;;;;;;6.97;3.90;;;11.00;92.80;;;;;;5134645;28;20051;-75
2022/03/14 07:02:54;;;;;;;6.90;3.85;;;10.90;93.10;;;;;;5116573;28;20402;-75
2022/03/14 07:05:23;;;;;;;7.15;4.55;;;10.80;93.30;;;;;;5099541;28;20055;-75
2022/03/14 07:07:52;;;;;;;7.43;4.43;;;10.80;93.60;;;;;;5116225;28;20039;-75
2022/03/14 07:10:18;;;;;;;6.50;4.22;;;10.80;93.90;;;;;;5100593;28;20437;-75
2022/03/14 07:12:46;;;;;;;7.85;4.05;;;10.80;94.00;;;;;;5116323;28;20044;-75
2022/03/14 07:15:14;;;;;;;6.10;4.03;;;10.80;94.10;;;;;;5116080;28;20058;-75
2022/03/14 07:17:40;;;;;;;7.05;4.40;;;10.70;94.50;;;;;;5115767;28;20058;-75
2022/03/14 07:20:07;;;;;;;10.43;4.95;;;10.80;94.60;;;;;;5082428;28;20051;-75
2022/03/14 07:22:35;;;;;;;7.10;4.75;;;10.70;94.70;;;;;;5116270;28;20509;-75
2022/03/14 07:25:02;;;;;;;6.00;4.07;;;10.70;95.00;;;;;;5116281;28;20051;-75
2022/03/14 07:27:28;;;;;;;6.72;4.22;;;10.60;95.30;;;;;;5134958;27;20122;-76
2022/03/14 07:29:53;;;;;;;7.65;4.22;;;10.70;95.60;;;;;;5136234;27;20126;-75
2022/03/14 07:32:19;;;;;;;7.88;4.40;;;10.70;95.70;;;;;;5155134;27;20097;-75
2022/03/14 07:34:45;;;;;;;7.20;4.55;;;10.70;95.80;;;;;;5136860;27;20046;-76
2022/03/14 07:37:10;;;;;;;6.90;4.68;;;10.70;96.10;;;;;;5136863;27;20065;-75
2022/03/14 07:39:36;;;;;;;8.88;5.50;;;10.70;96.10;;;;;;5136745;27;20047;-75
2022/03/14 07:42:02;;;;;;;6.63;4.95;;;10.60;96.30;;;;;;5136662;27;20137;-79
2022/03/14 07:44:27;;;;;;;7.55;4.80;;;10.60;96.60;;;;;;5136695;27;20047;-81
2022/03/14 07:46:53;;;;;;;7.95;5.18;;;10.80;96.60;;;;;;5119220;27;20038;-79
2022/03/14 07:49:20;;;;;;;8.27;4.95;;;10.70;96.90;;;;;;5136668;27;20119;-78
2022/03/14 07:51:46;;;;;;;6.95;4.70;;;10.80;96.90;;;;;;5136296;27;20086;-81
2022/03/14 07:54:11;;;;;;;9.35;5.57;;;10.60;96.90;;;;;;5136611;27;20470;-82
2022/03/14 07:56:37;;;;;;;10.23;5.35;;;10.70;97.00;;;;;;5136323;27;20054;-83
2022/03/14 07:59:03;;;;;;;8.07;5.43;;;10.60;97.20;;;;;;5136516;27;20046;-81
2022/03/14 08:01:29;;;;;;;7.88;5.38;;;10.70;97.30;;;;;;5120006;27;20047;-82
2022/03/14 08:03:54;;;;;;;9.85;5.78;;;10.50;97.60;;;;;;5123133;27;20043;-81
2022/03/14 08:06:23;;;;;;;10.10;5.47;;;10.40;97.80;;;;;;5140417;27;20054;-78
2022/03/14 08:08:50;;;;;;;8.50;5.45;;;10.30;98.00;;;;;;5140186;27;20098;-79
2022/03/14 08:11:17;;;;;;;10.02;4.90;;;10.30;98.10;;;;;;5139810;27;20057;-78
2022/03/14 08:13:43;;;;;;;8.15;5.63;;;10.30;98.30;;;;;;5139452;27;20034;-78
2022/03/14 08:16:09;;;;;;;8.13;5.38;;;10.30;98.50;;;;;;5139672;27;20046;-78
2022/03/14 08:18:37;;;;;;;8.52;5.53;;;10.50;98.50;;;;;;5139263;27;20107;-79
2022/03/14 08:21:03;;;;;;;7.68;5.10;;;10.50;98.50;;;;;;5139957;27;20130;-78
2022/03/14 08:23:30;;;;;;;9.02;6.00;;;10.50;98.60;;;;;;5144838;27;20054;-82
2022/03/14 08:25:57;;;;;;;10.00;5.72;;;10.50;98.70;;;;;;5128700;27;20034;-78
2022/03/14 08:28:22;;;;;;;9.68;5.93;;;10.40;98.80;;;;;;5139932;27;20485;-76
2022/03/14 08:30:49;;;;;;;9.80;6.03;;;10.30;99.00;;;;;;5139716;27;20081;-78
2022/03/14 08:33:16;;;;;;;8.93;5.85;;;10.60;99.10;;;;;;5139423;27;20050;-77
2022/03/14 08:35:44;;;;;;;9.95;6.10;;;10.70;98.90;;;;;;5140013;27;20057;-78
2022/03/14 08:38:11;;;;;;;9.88;5.47;;;10.60;99.00;;;;;;5139606;27;20050;-77
2022/03/14 08:40:36;;;;;;;7.78;5.43;;;10.60;99.00;;;;;;5139466;27;20508;-77
2022/03/14 08:43:02;;;;;;;10.35;6.00;;;10.60;99.10;;;;;;5122786;27;20047;-77
2022/03/14 08:45:28;;;;;;;7.55;5.10;;;10.70;99.20;;;;;;5122256;27;20042;-77
2022/03/14 08:47:54;;;;;;;10.10;5.65;;;10.80;99.30;;;;;;5138919;27;20050;-77
2022/03/14 08:50:21;;;;;;;9.05;5.40;;;10.80;99.40;;;;;;5139321;27;20049;-77
2022/03/14 08:52:47;;;;;;;8.05;5.97;;;10.70;99.30;;;;;;5139780;27;20051;-77
2022/03/14 08:55:13;;;;;;;8.65;5.55;;;10.80;99.50;;;;;;5138966;27;20047;-77
2022/03/14 08:57:40;;;;;;;8.70;5.65;;;10.80;99.40;;;;;;5139184;27;20054;-78
2022/03/14 09:00:07;;;;;;;8.68;5.82;;;10.60;99.50;;;;;;5123144;27;20073;-78
2022/03/14 09:02:33;;;;;;;10.07;6.25;;;10.60;99.70;;;;;;5122150;27;20039;-78
2022/03/14 09:04:58;;;;;;;9.13;6.18;;;10.80;99.80;;;;;;5138876;27;20087;-78
2022/03/14 09:07:28;;;;;;;12.65;6.85;;;10.80;99.60;;;;;;5121778;27;20041;-79
2022/03/14 09:09:59;;;;;;;8.85;6.43;;;10.90;99.60;;;;;;5138947;27;20370;-78
2022/03/14 09:12:25;;;;;;;10.02;6.07;;;11.00;99.60;;;;;;5138288;27;20042;-78
2022/03/14 09:14:51;;;;;;;12.43;7.40;;;11.00;99.40;;;;;;5087855;27;20099;-78
2022/03/14 09:17:17;;;;;;;8.55;6.20;;;11.00;99.60;;;;;;5139842;27;20078;-81
2022/03/14 09:19:43;;;;;;;13.25;7.30;;;11.10;99.80;;;;;;5139894;27;20092;-77
2022/03/14 09:22:09;;;;;;;10.43;7.55;;;11.10;99.60;;;;;;5121615;27;20093;-77
2022/03/14 09:24:36;;;;;;;13.27;8.30;;;11.10;99.70;;;;;;5139247;27;20149;-77
2022/03/14 09:27:04;;;;;;;13.38;8.60;;;11.20;99.80;;;;;;5138292;27;20043;-76
2022/03/14 09:29:30;;;;;;;12.95;8.77;;;11.30;99.70;;;;;;5138594;27;20058;-75
2022/03/14 09:31:56;;;;;;;13.80;9.02;;;11.50;99.80;;;;;;5121257;27;20052;-76
2022/03/14 09:34:22;;;;;;;17.20;9.38;;;11.70;99.50;;;;;;5121351;27;20051;-76
2022/03/14 09:36:48;;;;;;;15.60;10.23;;;11.70;99.40;;;;;;5121205;27;20053;-77
2022/03/14 09:39:14;;;;;;;16.65;10.18;;;11.60;99.20;;;;;;5138607;27;20355;-76
2022/03/14 09:41:41;;;;;;;16.73;10.45;;;11.80;99.20;;;;;;5138332;27;20062;-77
2022/03/14 09:44:10;;;;;;;14.60;9.65;;;11.90;99.00;;;;;;5138302;27;20129;-76
2022/03/14 09:46:39;;;;;;;15.00;10.32;;;11.90;99.00;;;;;;5120696;27;20047;-78
2022/03/14 09:49:09;;;;;;;15.02;9.43;;;11.90;99.10;;;;;;5138194;27;20058;-77
2022/03/14 09:51:39;;;;;;;17.23;11.43;;;12.00;99.00;;;;;;5138392;27;20077;-79
2022/03/14 09:54:07;;;;;;;21.55;12.40;;;11.90;99.00;;;;;;5137809;27;20043;-78
2022/03/14 09:56:33;;;;;;;19.88;13.23;;;12.00;99.00;;;;;;5137611;27;20134;-77
2022/03/14 09:59:00;;;;;;;21.60;13.75;;;12.10;98.90;;;;;;5138027;27;20058;-78
2022/03/14 10:01:27;;;;;;;26.90;15.68;;;12.10;98.60;;;;;;5138040;27;20042;-80
2022/03/14 10:03:54;;;;;;;20.50;12.95;;;12.00;98.70;;;;;;5137979;27;20042;-77
2022/03/14 10:06:20;;;;;;;26.58;16.10;;;11.90;98.90;;;;;;5113692;27;20058;-79
2022/03/14 10:08:46;;;;;;;30.60;17.27;;;11.90;98.90;;;;;;5124013;27;20043;-79
2022/03/14 10:11:13;;;;;;;41.70;20.88;;;11.70;99.00;;;;;;5117040;27;20389;-79
2022/03/14 10:13:39;;;;;;;51.40;24.50;;;11.60;99.00;;;;;;5116525;27;20043;-80
2022/03/14 10:16:05;;;;;;;52.13;25.85;;;11.40;99.20;;;;;;5134041;27;20118;-79
2022/03/14 10:18:55;;;;;;;49.88;23.48;;;11.10;99.50;;;;;;5117878;27;20081;-79
2022/03/14 10:21:37;;;;;;;52.30;24.15;;;10.80;99.90;;;;;;5119328;27;20050;-78
2022/03/14 10:24:06;;;;;;;56.90;22.40;;;10.50;99.90;;;;;;5136720;27;20164;-77
2022/03/14 10:26:33;;;;;;;55.08;21.17;;;10.40;99.90;;;;;;5137460;27;20057;-78
2022/03/14 10:29:00;;;;;;;43.25;19.95;;;10.40;99.90;;;;;;5137517;27;20099;-77
2022/03/14 10:31:30;;;;;;;39.42;17.90;;;10.20;99.90;;;;;;5103263;27;20051;-78
2022/03/14 10:34:03;;;;;;;41.90;18.48;;;10.10;99.90;;;;;;5120087;27;20058;-78
2022/03/14 10:36:51;;;;;;;45.25;20.23;;;10.20;99.90;;;;;;5130515;27;20073;-83
2022/03/14 10:39:31;;;;;;;50.83;20.63;;;10.20;99.90;;;;;;5099614;27;20087;-83
2022/03/14 10:42:05;;;;;;;49.95;20.40;;;10.40;99.90;;;;;;5116591;27;20420;-82
2022/03/14 10:44:32;;;;;;;51.88;20.10;;;10.20;99.90;;;;;;5116473;27;20047;-84
2022/03/14 10:46:59;;;;;;;46.13;19.27;;;10.20;99.90;;;;;;5099296;27;20043;-83
2022/03/14 10:49:30;;;;;;;50.05;19.85;;;10.20;99.90;;;;;;5116522;27;20043;-83
2022/03/14 10:52:07;;;;;;;44.92;18.58;;;10.30;99.90;;;;;;5116361;28;20044;-82
2022/03/14 10:54:38;;;;;;;47.10;19.52;;;10.50;99.90;;;;;;5116027;27;20394;-83
2022/03/14 10:57:12;;;;;;;41.97;16.60;;;10.60;99.90;;;;;;5097854;28;20055;-78
2022/03/14 10:59:44;;;;;;;40.58;17.15;;;10.80;99.90;;;;;;5099874;28;20046;-82
2022/03/14 11:02:17;;;;;;;46.33;20.38;;;10.80;99.90;;;;;;5099343;28;20100;-81
2022/03/14 11:04:47;;;;;;;37.15;16.38;;;10.70;99.90;;;;;;5099578;28;20100;-82
2022/03/14 11:07:13;;;;;;;38.90;15.60;;;10.70;99.90;;;;;;5099456;28;20156;-82
2022/03/14 11:09:50;;;;;;;39.67;16.80;;;10.90;99.90;;;;;;5082651;28;20047;-83
2022/03/14 11:12:22;;;;;;;36.70;14.10;;;10.90;99.90;;;;;;5099311;28;20040;-81
2022/03/14 11:14:53;;;;;;;40.25;15.57;;;10.90;99.90;;;;;;5116206;28;20482;-82
2022/03/14 11:17:22;;;;;;;45.30;16.45;;;10.80;99.90;;;;;;5115980;28;20083;-81
2022/03/14 11:19:48;;;;;;;36.72;15.88;;;10.80;99.90;;;;;;5099282;28;20090;-82
2022/03/14 11:22:15;;;;;;;35.88;12.77;;;10.80;99.90;;;;;;5116006;28;20077;-81
2022/03/14 11:24:53;;;;;;;39.78;13.80;;;10.60;99.90;;;;;;5115996;28;20039;-81
2022/03/14 11:27:32;;;;;;;31.65;12.68;;;10.70;99.90;;;;;;5116354;28;20167;-81
2022/03/14 11:30:09;;;;;;;35.20;12.85;;;10.80;99.90;;;;;;5117056;28;20071;-81
2022/03/14 11:32:36;;;;;;;37.15;11.95;;;10.90;99.90;;;;;;5116228;28;20066;-82
2022/03/14 11:35:06;;;;;;;38.38;12.50;;;11.10;99.90;;;;;;5099478;27;20138;-81
2022/03/14 11:37:33;;;;;;;31.55;11.70;;;11.30;99.90;;;;;;5101808;27;20099;-81
2022/03/14 11:40:01;;;;;;;38.20;12.73;;;11.20;99.90;;;;;;5120128;27;20155;-81
2022/03/14 11:42:27;;;;;;;32.65;12.15;;;11.10;99.90;;;;;;5120015;27;20107;-81
2022/03/14 11:44:54;;;;;;;35.83;12.60;;;11.00;99.90;;;;;;5120092;27;20047;-76
2022/03/14 11:47:22;;;;;;;27.48;10.93;;;10.80;99.90;;;;;;5119709;27;20083;-83
2022/03/14 11:49:48;;;;;;;32.08;12.02;;;10.60;99.90;;;;;;5120036;27;20082;-81
2022/03/14 11:52:19;;;;;;;29.65;11.55;;;10.60;99.90;;;;;;5119845;27;20042;-82
2022/03/14 11:54:51;;;;;;;32.45;12.43;;;10.60;99.90;;;;;;5120001;27;20051;-81
2022/03/14 11:57:49;;;;;;;28.83;12.90;;;10.60;99.90;;;;;;5119165;27;20406;-80
2022/03/14 12:00:21;;;;;;;30.10;12.32;;;10.50;99.90;;;;;;5111643;27;20047;-83
2022/03/14 12:02:48;;;;;;;28.95;11.02;;;10.60;99.90;;;;;;5119437;27;20405;-82
2022/03/14 12:05:25;;;;;;;28.52;12.93;;;10.70;99.90;;;;;;5102303;27;20531;-83
2022/03/14 12:07:51;;;;;;;22.55;11.65;;;10.60;99.90;;;;;;5119346;27;20051;-82
2022/03/14 12:10:36;;;;;;;34.70;13.45;;;10.60;99.90;;;;;;5102852;27;20500;-77
2022/03/14 12:13:02;;;;;;;30.65;13.00;;;10.50;99.90;;;;;;5102347;27;20035;-80
2022/03/14 12:15:48;;;;;;;29.83;13.77;;;10.50;99.90;;;;;;5129833;27;20051;-82
2022/03/14 12:18:23;;;;;;;35.58;13.15;;;10.60;99.90;;;;;;5085128;27;20043;-80
2022/03/14 12:21:01;;;;;;;37.83;13.85;;;10.70;99.90;;;;;;5102349;27;20061;-80
2022/03/14 12:23:32;;;;;;;34.47;14.45;;;10.70;99.90;;;;;;5102880;27;20096;-80
2022/03/14 12:25:59;;;;;;;32.45;13.13;;;10.70;99.90;;;;;;5118797;27;20099;-81
2022/03/14 12:28:28;;;;;;;29.00;12.80;;;10.80;99.90;;;;;;5102026;27;20047;-81
2022/03/14 12:30:59;;;;;;;34.13;15.88;;;10.70;99.90;;;;;;5102220;27;20039;-82
2022/03/14 12:33:34;;;;;;;36.45;14.25;;;10.80;99.90;;;;;;5135989;27;20043;-82
2022/03/14 12:36:22;;;;;;;34.42;14.32;;;10.90;99.90;;;;;;5118965;27;20081;-82
2022/03/14 12:39:06;;;;;;;36.08;14.98;;;10.80;99.90;;;;;;5136167;27;20047;-79